Time;durP1;ratioP1;P1;durP2;ratioP2;P2;SDS_P1;SDS_P2;PMS_P1;PMS_P2;Temp;Humidity;BMP_temperature;BMP_pressure;BME280_temperature;BME280_humidity;BME280_pressure;Samples;Min_cycle;Max_cycle;Signal;HPM_P1;HPM_P2
2022/10/27 00:00:38;;;;;;;18.67;6.40;;;;;;;11.36;100.00;101034.66;5081452;28;20220;-75
2022/10/27 00:03:03;;;;;;;16.70;6.17;;;;;;;11.35;100.00;101038.97;5076903;28;20707;-76
2022/10/27 00:05:29;;;;;;;15.53;5.43;;;;;;;11.35;100.00;101045.88;5078912;28;20311;-75
2022/10/27 00:07:55;;;;;;;17.73;5.67;;;;;;;11.34;100.00;101041.56;5084524;28;21035;-75
2022/10/27 00:10:20;;;;;;;13.63;5.27;;;;;;;11.31;100.00;101046.75;5085259;28;21199;-76
2022/10/27 00:12:46;;;;;;;11.93;5.23;;;;;;;11.26;100.00;101039.84;5074076;28;20734;-76
2022/10/27 00:15:12;;;;;;;10.30;5.40;;;;;;;11.27;100.00;101040.69;5081676;28;20220;-77
2022/10/27 00:17:38;;;;;;;13.30;5.23;;;;;;;11.24;100.00;101036.41;5080530;28;20228;-76
2022/10/27 00:20:04;;;;;;;13.60;5.80;;;;;;;11.22;100.00;101038.13;5077663;28;20209;-76
2022/10/27 00:22:30;;;;;;;12.33;5.23;;;;;;;11.20;100.00;101041.53;5076232;28;20292;-76
2022/10/27 00:24:55;;;;;;;10.30;5.00;;;;;;;11.19;100.00;101042.44;5080400;28;20202;-77
2022/10/27 00:27:20;;;;;;;9.87;5.03;;;;;;;11.17;100.00;101041.56;5079295;28;20196;-76
2022/10/27 00:29:46;;;;;;;8.10;5.13;;;;;;;11.16;100.00;101043.28;5079966;28;20250;-76
2022/10/27 00:32:11;;;;;;;6.00;4.37;;;;;;;11.15;100.00;101032.94;5083131;28;20786;-76
2022/10/27 00:34:36;;;;;;;5.30;3.50;;;;;;;11.12;100.00;101029.47;5084143;28;20603;-76
2022/10/27 00:37:02;;;;;;;5.17;3.80;;;;;;;11.11;100.00;101030.34;5081308;28;20184;-75
2022/10/27 00:39:27;;;;;;;4.40;3.73;;;;;;;11.08;100.00;101032.06;5079288;28;20212;-76
2022/10/27 00:41:52;;;;;;;4.87;3.63;;;;;;;11.06;100.00;101028.59;5081896;28;20214;-76
2022/10/27 00:44:38;;;;;;;4.80;3.97;;;;;;;11.04;100.00;101033.75;5083710;28;20216;-76
2022/10/27 00:47:09;;;;;;;4.30;3.53;;;;;;;11.04;100.00;101035.50;5086139;28;20188;-76
2022/10/27 00:49:44;;;;;;;5.87;3.27;;;;;;;11.02;100.00;101026.88;5085170;28;20219;-76
2022/10/27 00:52:24;;;;;;;5.00;3.60;;;;;;;10.98;100.00;101037.22;5068321;28;20331;-75
2022/10/27 00:54:50;;;;;;;4.63;3.40;;;;;;;10.96;100.00;101022.53;5072115;28;20203;-76
2022/10/27 00:57:15;;;;;;;5.53;3.40;;;;;;;10.94;100.00;101014.78;5074781;28;20231;-76
2022/10/27 00:59:41;;;;;;;4.27;3.60;;;;;;;10.94;100.00;101016.50;5076510;28;20193;-77
2022/10/27 01:02:09;;;;;;;4.70;3.60;;;;;;;10.92;100.00;101020.81;5080736;28;20206;-76
2022/10/27 01:05:00;;;;;;;3.70;3.40;;;;;;;10.89;100.00;101026.00;5081364;28;20185;-77
2022/10/27 01:07:27;;;;;;;4.47;3.87;;;;;;;10.83;100.00;101019.94;5076717;28;20640;-76
2022/10/27 01:09:52;;;;;;;4.07;3.40;;;;;;;10.79;100.00;101023.38;5072991;28;20190;-76
2022/10/27 01:12:18;;;;;;;4.63;3.63;;;;;;;10.76;100.00;101025.09;5078616;28;20224;-76
2022/10/27 01:14:44;;;;;;;3.47;3.17;;;;;;;10.75;100.00;101033.72;5071742;28;20225;-77
2022/10/27 01:17:18;;;;;;;5.03;3.10;;;;;;;10.71;100.00;101034.56;5075693;28;20271;-76
2022/10/27 01:20:11;;;;;;;3.63;3.20;;;;;;;10.69;100.00;101029.41;5085758;28;20195;-76
2022/10/27 01:22:54;;;;;;;4.37;3.00;;;;;;;10.65;100.00;101031.13;5074877;28;20214;-75
2022/10/27 01:25:49;;;;;;;3.67;2.73;;;;;;;10.63;100.00;101025.09;5078590;28;20189;-76
2022/10/27 01:28:26;;;;;;;3.33;2.40;;;;;;;10.59;100.00;101015.56;5076106;28;20285;-75
2022/10/27 01:31:02;;;;;;;2.73;2.53;;;;;;;10.58;100.00;101018.16;5077815;28;21011;-75
2022/10/27 01:33:50;;;;;;;3.20;2.90;;;;;;;10.58;100.00;101021.59;5076033;28;20588;-75
2022/10/27 01:36:25;;;;;;;3.17;2.93;;;;;;;10.60;100.00;101026.78;5073173;28;20246;-77
2022/10/27 01:39:08;;;;;;;4.63;2.90;;;;;;;10.59;100.00;101020.75;5077286;28;20847;-75
2022/10/27 01:41:57;;;;;;;3.93;2.73;;;;;;;10.59;100.00;101022.47;5090586;28;20186;-75
2022/10/27 01:44:32;;;;;;;3.60;2.90;;;;;;;10.57;100.00;101019.88;5077021;28;20582;-75
2022/10/27 01:46:58;;;;;;;5.00;3.10;;;;;;;10.54;100.00;101013.84;5079256;28;20186;-75
2022/10/27 01:49:23;;;;;;;3.97;3.30;;;;;;;10.48;100.00;101007.78;5080286;28;20174;-75
2022/10/27 01:51:49;;;;;;;10.40;3.93;;;;;;;10.43;100.00;101011.22;5080052;28;20209;-75
2022/10/27 01:54:18;;;;;;;9.87;4.93;;;;;;;10.41;100.00;101008.63;5076622;28;20943;-75
2022/10/27 01:57:15;;;;;;;9.23;4.33;;;;;;;10.38;100.00;101003.44;5078800;28;20182;-75
2022/10/27 01:59:52;;;;;;;6.17;4.63;;;;;;;10.37;100.00;100999.94;5080525;28;20216;-75
2022/10/27 02:02:27;;;;;;;6.50;4.37;;;;;;;10.39;100.00;101001.69;5075234;28;20236;-75
2022/10/27 02:05:04;;;;;;;4.83;3.80;;;;;;;10.39;100.00;101005.16;5074943;28;20194;-74
2022/10/27 02:07:32;;;;;;;4.70;4.30;;;;;;;10.38;100.00;101000.84;5081427;28;20205;-75
2022/10/27 02:10:03;;;;;;;3.90;3.50;;;;;;;10.35;100.00;101004.25;5081420;28;20189;-75
2022/10/27 02:12:37;;;;;;;3.77;3.33;;;;;;;10.36;100.00;101015.47;5078622;28;20658;-75
2022/10/27 02:15:11;;;;;;;3.90;3.50;;;;;;;10.34;100.00;101001.66;5076544;28;20182;-75
2022/10/27 02:17:40;;;;;;;4.67;3.50;;;;;;;10.32;100.00;101014.59;5084444;28;20206;-76
2022/10/27 02:20:12;;;;;;;4.27;3.87;;;;;;;10.29;100.00;101012.00;5078518;28;20311;-75
2022/10/27 02:22:38;;;;;;;5.53;3.50;;;;;;;10.28;100.00;101012.00;5077602;28;20214;-76
2022/10/27 02:25:04;;;;;;;4.17;3.77;;;;;;;10.26;100.00;101006.81;5075961;28;20192;-76
2022/10/27 02:27:37;;;;;;;5.37;3.47;;;;;;;10.23;100.00;101001.59;5073099;28;20175;-76
2022/10/27 02:30:04;;;;;;;4.40;3.60;;;;;;;10.18;100.00;101006.75;5076484;28;20711;-75
2022/10/27 02:32:31;;;;;;;5.63;3.63;;;;;;;10.16;100.00;101005.03;5075269;28;20225;-75
2022/10/27 02:34:58;;;;;;;5.77;3.57;;;;;;;10.13;100.00;101002.44;5079976;28;20186;-76
2022/10/27 02:37:30;;;;;;;5.60;3.67;;;;;;;10.11;100.00;101002.44;5072922;28;20228;-76
2022/10/27 02:39:55;;;;;;;5.43;3.93;;;;;;;10.09;100.00;101004.16;5075829;28;20359;-75
2022/10/27 02:42:21;;;;;;;4.70;3.70;;;;;;;10.07;100.00;101000.69;5080923;28;20769;-75
2022/10/27 02:44:46;;;;;;;4.20;3.80;;;;;;;10.05;100.00;101007.56;5079910;28;20686;-75
2022/10/27 02:47:11;;;;;;;3.80;3.50;;;;;;;10.03;100.00;101012.75;5079785;28;20658;-74
2022/10/27 02:49:36;;;;;;;5.23;3.47;;;;;;;10.02;100.00;101010.13;5080557;28;20250;-75
2022/10/27 02:52:03;;;;;;;6.37;3.50;;;;;;;10.04;100.00;101008.44;5080239;28;20312;-75
2022/10/27 02:54:30;;;;;;;8.00;3.60;;;;;;;10.02;100.00;101016.19;5074574;28;20200;-75
2022/10/27 02:56:55;;;;;;;5.03;3.53;;;;;;;10.00;100.00;101024.78;5083956;28;20186;-75
2022/10/27 02:59:20;;;;;;;4.93;3.50;;;;;;;9.96;100.00;101020.47;5077298;28;20209;-74
2022/10/27 03:01:46;;;;;;;4.47;3.30;;;;;;;9.91;100.00;101021.31;5081457;28;20214;-75
2022/10/27 03:04:11;;;;;;;4.43;3.60;;;;;;;9.87;100.00;101019.53;5081339;28;20309;-74
2022/10/27 03:06:36;;;;;;;4.57;3.57;;;;;;;9.84;100.00;101018.66;5085740;28;20185;-75
2022/10/27 03:09:02;;;;;;;3.77;3.13;;;;;;;9.81;100.00;101010.88;5086645;28;20193;-75
2022/10/27 03:11:27;;;;;;;3.87;2.90;;;;;;;9.78;100.00;101004.00;5084969;28;20665;-74
2022/10/27 03:13:52;;;;;;;3.70;3.40;;;;;;;9.76;100.00;101003.97;5086486;28;20190;-75
2022/10/27 03:16:17;;;;;;;2.97;2.77;;;;;;;9.76;100.00;101013.47;5088400;28;20194;-74
2022/10/27 03:18:43;;;;;;;3.40;2.97;;;;;;;9.74;100.00;101010.88;5079839;28;20227;-74
2022/10/27 03:21:08;;;;;;;3.27;2.97;;;;;;;9.74;100.00;100995.38;5074230;28;20188;-75
2022/10/27 03:23:33;;;;;;;3.50;3.20;;;;;;;9.75;100.00;101003.97;5073263;28;20584;-76
2022/10/27 03:25:59;;;;;;;3.30;3.00;;;;;;;9.72;100.00;100991.91;5076102;28;20233;-75
2022/10/27 03:28:25;;;;;;;4.00;3.13;;;;;;;9.70;100.00;100998.78;5080127;28;20187;-75
2022/10/27 03:30:50;;;;;;;4.07;3.20;;;;;;;9.68;100.00;100999.63;5076624;28;20189;-74
2022/10/27 03:33:15;;;;;;;3.33;3.03;;;;;;;9.66;100.00;101009.94;5071467;28;20198;-76
2022/10/27 03:35:41;;;;;;;3.63;3.27;;;;;;;9.66;100.00;101009.09;5071274;28;20202;-76
2022/10/27 03:38:06;;;;;;;4.03;3.50;;;;;;;9.65;100.00;101015.97;5073829;28;20879;-75
2022/10/27 03:40:31;;;;;;;3.77;3.20;;;;;;;9.63;100.00;101017.66;5072849;28;20190;-76
2022/10/27 03:42:57;;;;;;;3.77;3.23;;;;;;;9.61;100.00;101019.38;5078242;28;20206;-76
2022/10/27 03:45:27;;;;;;;4.20;3.57;;;;;;;9.56;100.00;101021.09;5074192;28;20204;-75
2022/10/27 03:48:03;;;;;;;10.83;3.57;;;;;;;9.53;100.00;101019.31;5080807;28;20733;-75
2022/10/27 03:50:28;;;;;;;4.37;3.40;;;;;;;9.51;100.00;101015.88;5079597;28;20323;-75
2022/10/27 03:52:54;;;;;;;3.73;3.20;;;;;;;9.52;100.00;101016.75;5075279;28;20201;-74
2022/10/27 03:55:19;;;;;;;4.70;3.60;;;;;;;9.51;100.00;101023.63;5077916;28;20321;-75
2022/10/27 03:57:44;;;;;;;4.20;3.80;;;;;;;9.53;100.00;101016.75;5076214;28;20210;-75
2022/10/27 04:00:10;;;;;;;4.07;3.67;;;;;;;9.55;100.00;101019.34;5079782;28;20666;-76
2022/10/27 04:02:36;;;;;;;5.20;4.13;;;;;;;9.58;100.00;101015.06;5075068;28;20235;-75
2022/10/27 04:05:01;;;;;;;4.20;3.80;;;;;;;9.65;100.00;101018.53;5079158;28;20186;-75
2022/10/27 04:07:26;;;;;;;4.47;3.80;;;;;;;9.73;100.00;101027.22;5077008;28;20675;-75
2022/10/27 04:09:51;;;;;;;4.93;4.03;;;;;;;9.81;100.00;101023.81;5084017;28;20220;-75
2022/10/27 04:12:17;;;;;;;7.83;4.23;;;;;;;9.86;100.00;101027.31;5080979;28;20482;-75
2022/10/27 04:14:42;;;;;;;4.70;4.20;;;;;;;9.90;100.00;101029.91;5079749;28;20688;-76
2022/10/27 04:17:08;;;;;;;5.43;4.40;;;;;;;9.97;100.00;101019.63;5076880;28;20185;-76
2022/10/27 04:19:33;;;;;;;4.93;4.53;;;;;;;10.03;100.00;101014.47;5082004;28;20244;-74
2022/10/27 04:21:58;;;;;;;5.07;4.33;;;;;;;10.07;100.00;101016.22;5080954;28;20743;-74
2022/10/27 04:24:24;;;;;;;5.00;4.60;;;;;;;10.11;100.00;101014.50;5079699;28;20190;-74
2022/10/27 04:26:49;;;;;;;5.53;4.53;;;;;;;10.15;100.00;101011.06;5081438;28;20350;-74
2022/10/27 04:29:14;;;;;;;5.23;3.97;;;;;;;10.19;100.00;101008.50;5080695;28;20182;-76
2022/10/27 04:31:39;;;;;;;5.43;3.70;;;;;;;10.20;100.00;100999.88;5085295;28;20179;-74
2022/10/27 04:34:05;;;;;;;3.70;3.40;;;;;;;10.21;100.00;100998.16;5086557;28;20179;-74
2022/10/27 04:36:30;;;;;;;3.73;3.43;;;;;;;10.21;100.00;100993.84;5095394;28;20181;-75
2022/10/27 04:38:55;;;;;;;4.43;3.47;;;;;;;10.20;100.00;100996.44;5101147;28;20232;-75
2022/10/27 04:41:21;;;;;;;3.93;3.53;;;;;;;10.18;100.00;100987.81;5105456;28;20189;-75
2022/10/27 04:43:50;;;;;;;3.67;3.37;;;;;;;10.18;100.00;100987.81;5103841;28;20210;-75
2022/10/27 04:46:16;;;;;;;4.17;3.30;;;;;;;10.16;100.00;100986.94;5106490;28;20177;-75
2022/10/27 04:48:41;;;;;;;3.53;3.27;;;;;;;10.13;100.00;100984.34;5105537;28;20165;-75
2022/10/27 04:51:06;;;;;;;3.87;3.47;;;;;;;10.09;100.00;100991.22;5107759;28;20246;-75
2022/10/27 04:53:32;;;;;;;2.90;2.70;;;;;;;10.03;100.00;100983.44;5109600;28;20223;-76
2022/10/27 04:55:57;;;;;;;3.30;3.00;;;;;;;9.97;100.00;100986.00;5109380;28;21056;-75
2022/10/27 04:58:22;;;;;;;3.07;2.77;;;;;;;9.91;100.00;100984.22;5093316;28;20213;-75
2022/10/27 05:00:48;;;;;;;3.77;3.37;;;;;;;9.85;100.00;100989.38;5105717;28;20253;-75
2022/10/27 05:03:14;;;;;;;4.67;3.40;;;;;;;9.81;100.00;100991.09;5108352;28;20196;-75
2022/10/27 05:05:39;;;;;;;3.77;3.27;;;;;;;9.71;100.00;100995.34;5107504;28;20173;-75
2022/10/27 05:08:05;;;;;;;3.50;3.20;;;;;;;9.64;100.00;101000.47;5105916;28;20176;-75
2022/10/27 05:10:32;;;;;;;3.83;3.00;;;;;;;9.58;100.00;101007.31;5101293;28;20187;-74
2022/10/27 05:12:58;;;;;;;4.57;3.00;;;;;;;9.55;100.00;101021.94;5099031;28;20217;-75
2022/10/27 05:15:23;;;;;;;3.30;3.00;;;;;;;9.51;100.00;101023.63;5099824;28;20193;-75
2022/10/27 05:17:49;;;;;;;2.60;2.40;;;;;;;9.51;100.00;101020.16;5106422;28;20212;-75
2022/10/27 05:20:15;;;;;;;2.77;2.57;;;;;;;9.51;100.00;101022.75;5097428;28;20165;-76
2022/10/27 05:22:40;;;;;;;3.10;2.80;;;;;;;9.52;100.00;101024.50;5099623;28;20293;-75
2022/10/27 05:25:06;;;;;;;3.90;2.70;;;;;;;9.56;100.00;101028.84;5101297;28;20963;-75
2022/10/27 05:27:32;;;;;;;3.03;2.73;;;;;;;9.60;100.00;101022.84;5097940;28;20449;-76
2022/10/27 05:29:57;;;;;;;2.50;2.30;;;;;;;9.65;100.00;101040.97;5101469;28;20637;-77
2022/10/27 05:32:23;;;;;;;2.90;2.70;;;;;;;9.71;100.00;101036.69;5100915;28;20213;-77
2022/10/27 05:34:48;;;;;;;2.90;2.70;;;;;;;9.77;100.00;101034.13;5103012;28;20173;-75
2022/10/27 05:37:14;;;;;;;3.10;2.40;;;;;;;9.83;100.00;101032.44;5098037;28;20210;-75
2022/10/27 05:39:39;;;;;;;3.57;3.27;;;;;;;9.86;100.00;101038.50;5079581;28;20224;-75
2022/10/27 05:42:04;;;;;;;3.53;3.10;;;;;;;9.89;100.00;101029.91;5079493;28;20324;-75
2022/10/27 05:44:30;;;;;;;3.00;2.80;;;;;;;9.94;100.00;101035.97;5073367;28;20223;-75
2022/10/27 05:46:55;;;;;;;3.50;2.93;;;;;;;9.96;100.00;101023.91;5074071;28;20197;-77
2022/10/27 05:49:20;;;;;;;3.37;2.93;;;;;;;9.98;100.00;101031.69;5073900;28;20275;-75
2022/10/27 05:51:48;;;;;;;3.63;3.33;;;;;;;10.01;100.00;101021.34;5074858;28;20182;-75
2022/10/27 05:54:14;;;;;;;3.77;3.10;;;;;;;10.02;100.00;101012.72;5070991;28;20200;-74
2022/10/27 05:56:39;;;;;;;3.17;2.93;;;;;;;10.03;100.00;101006.69;5073381;28;20198;-74
2022/10/27 05:59:04;;;;;;;3.77;3.30;;;;;;;10.02;100.00;100995.50;5069015;28;20220;-73
2022/10/27 06:01:30;;;;;;;5.00;3.43;;;;;;;10.05;100.00;101000.69;5077022;28;20260;-75
2022/10/27 06:03:55;;;;;;;3.50;3.20;;;;;;;10.08;100.00;100999.84;5074769;28;20207;-75
2022/10/27 06:06:20;;;;;;;4.00;3.60;;;;;;;10.10;100.00;101008.47;5070803;28;20939;-74
2022/10/27 06:08:45;;;;;;;3.40;3.20;;;;;;;10.13;100.00;101011.06;5071168;28;20190;-75
2022/10/27 06:11:11;;;;;;;3.70;3.40;;;;;;;10.14;100.00;101012.78;5076283;28;20191;-74
2022/10/27 06:13:36;;;;;;;4.03;3.73;;;;;;;10.13;100.00;101011.06;5076853;28;20303;-75
2022/10/27 06:16:01;;;;;;;4.30;4.00;;;;;;;10.12;100.00;101011.94;5075809;28;20198;-74
2022/10/27 06:18:27;;;;;;;4.13;3.37;;;;;;;10.13;100.00;101013.66;5079725;28;20210;-74
2022/10/27 06:20:52;;;;;;;3.90;3.50;;;;;;;10.11;100.00;101014.50;5084224;28;20189;-75
2022/10/27 06:23:18;;;;;;;3.57;3.17;;;;;;;10.09;100.00;101011.03;5075927;28;20330;-75
2022/10/27 06:25:43;;;;;;;3.63;3.33;;;;;;;10.06;100.00;101024.81;5072679;28;20190;-75
2022/10/27 06:28:08;;;;;;;3.50;3.30;;;;;;;10.05;100.00;101021.38;5074376;28;20193;-75
2022/10/27 06:30:34;;;;;;;3.30;3.10;;;;;;;10.05;100.00;101030.84;5077401;28;20189;-74
2022/10/27 06:32:59;;;;;;;3.17;2.97;;;;;;;10.05;100.00;101031.72;5078552;28;20210;-75
2022/10/27 06:35:24;;;;;;;3.27;3.07;;;;;;;10.06;100.00;101030.00;5078559;28;22058;-76
2022/10/27 06:37:50;;;;;;;3.77;3.37;;;;;;;10.09;100.00;101039.47;5081733;28;20207;-76
2022/10/27 06:40:18;;;;;;;3.40;3.20;;;;;;;10.14;100.00;101035.22;5081022;28;20933;-74
2022/10/27 06:42:45;;;;;;;3.60;3.30;;;;;;;10.17;100.00;101040.41;5081379;28;20296;-75
2022/10/27 06:45:11;;;;;;;3.20;3.00;;;;;;;10.19;100.00;101055.06;5078755;28;20177;-74
2022/10/27 06:47:36;;;;;;;3.50;3.30;;;;;;;10.24;100.00;101056.81;5078596;28;20242;-75
2022/10/27 06:50:02;;;;;;;3.30;3.00;;;;;;;10.24;100.00;101078.34;5081492;28;20201;-74
2022/10/27 06:52:27;;;;;;;4.20;3.33;;;;;;;10.25;100.00;101063.72;5079162;28;20347;-77
2022/10/27 06:54:53;;;;;;;6.63;4.20;;;;;;;10.28;100.00;101072.34;5079276;28;20301;-76
2022/10/27 06:57:19;;;;;;;3.60;3.30;;;;;;;10.35;100.00;101073.25;5071365;28;20247;-75
2022/10/27 06:59:44;;;;;;;7.90;3.67;;;;;;;10.46;100.00;101078.50;5080142;28;20643;-74
2022/10/27 07:02:13;;;;;;;3.83;3.50;;;;;;;10.56;100.00;101080.25;5071994;28;20266;-75
2022/10/27 07:04:39;;;;;;;3.67;3.37;;;;;;;10.61;100.00;101080.28;5070813;28;20192;-75
2022/10/27 07:07:04;;;;;;;5.30;3.63;;;;;;;10.68;100.00;101080.31;5071415;28;20593;-75
2022/10/27 07:09:30;;;;;;;3.07;2.87;;;;;;;10.75;100.00;101078.59;5069843;28;20183;-75
2022/10/27 07:11:55;;;;;;;4.20;3.27;;;;;;;10.83;100.00;101094.16;5077292;28;20694;-76
2022/10/27 07:14:20;;;;;;;3.50;3.10;;;;;;;10.90;100.00;101076.91;5084688;28;20260;-75
2022/10/27 07:16:46;;;;;;;3.53;3.23;;;;;;;10.95;100.00;101086.44;5082771;28;20190;-76
2022/10/27 07:19:11;;;;;;;3.53;3.23;;;;;;;11.03;100.00;101083.00;5083437;28;20252;-75
2022/10/27 07:21:36;;;;;;;4.70;4.30;;;;;;;11.12;100.00;101077.81;5086110;28;20190;-75
2022/10/27 07:24:02;;;;;;;4.43;3.50;;;;;;;11.19;100.00;101089.94;5075168;28;20205;-76
2022/10/27 07:26:27;;;;;;;4.93;4.43;;;;;;;11.27;100.00;101095.13;5074947;28;20274;-76
2022/10/27 07:28:52;;;;;;;4.10;3.80;;;;;;;11.35;100.00;101108.94;5073072;28;20312;-75
2022/10/27 07:31:18;;;;;;;5.50;4.87;;;;;;;11.42;100.00;101107.22;5073982;28;20197;-75
2022/10/27 07:33:43;;;;;;;6.17;5.00;;;;;;;11.49;100.00;101108.94;5076369;28;20718;-75
2022/10/27 07:36:08;;;;;;;5.77;4.80;;;;;;;11.59;100.00;101108.09;5081014;28;20215;-75
2022/10/27 07:38:34;;;;;;;5.10;4.60;;;;;;;11.71;100.00;101106.38;5071553;28;20367;-75
2022/10/27 07:40:59;;;;;;;5.10;4.60;;;;;;;11.85;100.00;101111.53;5076541;28;20228;-75
2022/10/27 07:43:24;;;;;;;4.77;4.10;;;;;;;11.96;100.00;101109.78;5076223;28;20319;-75
2022/10/27 07:45:50;;;;;;;5.20;4.70;;;;;;;12.03;100.00;101103.75;5078844;28;20320;-76
2022/10/27 07:48:16;;;;;;;5.17;4.67;;;;;;;12.12;100.00;101104.59;5078676;28;20298;-76
2022/10/27 07:50:43;;;;;;;5.13;4.63;;;;;;;12.20;100.00;101097.69;5079966;28;20266;-76
2022/10/27 07:53:09;;;;;;;4.77;4.27;;;;;;;12.29;100.00;101102.81;5072477;28;20614;-75
2022/10/27 07:55:35;;;;;;;5.53;5.03;;;;;;;12.42;100.00;101105.38;5074507;28;20553;-76
2022/10/27 07:58:08;;;;;;;5.27;4.87;;;;;;;12.56;100.00;101095.81;5077586;28;20301;-75
2022/10/27 08:00:37;;;;;;;5.67;5.17;;;;;;;12.72;100.00;101101.81;5075604;28;20230;-75
2022/10/27 08:03:04;;;;;;;5.90;5.33;;;;;;;12.87;100.00;101098.25;5075252;28;20219;-75
2022/10/27 08:05:32;;;;;;;6.57;5.97;;;;;;;13.04;100.00;101097.28;5071466;28;20195;-76
2022/10/27 08:07:59;;;;;;;6.37;5.77;;;;;;;13.14;100.00;101093.78;5076654;28;20182;-75
2022/10/27 08:10:25;;;;;;;6.37;5.77;;;;;;;13.23;100.00;101103.25;5072432;28;20295;-75
2022/10/27 08:12:50;;;;;;;6.33;5.73;;;;;;;13.29;100.00;101103.19;5073193;28;20914;-75
2022/10/27 08:15:15;;;;;;;6.50;5.90;;;;;;;13.35;100.00;101105.75;5069432;28;20275;-77
2022/10/27 08:17:40;;;;;;;6.70;5.97;;;;;;;13.43;100.00;101116.13;5074115;28;20231;-76
2022/10/27 08:20:08;;;;;;;6.00;5.50;;;;;;;13.50;100.00;101109.16;5074575;28;20268;-76
2022/10/27 08:22:33;;;;;;;5.57;5.03;;;;;;;13.59;100.00;101105.63;5072798;28;20263;-77
2022/10/27 08:24:58;;;;;;;5.83;5.23;;;;;;;13.67;100.00;101106.41;5074871;28;20564;-76
2022/10/27 08:27:24;;;;;;;7.93;5.50;;;;;;;13.77;100.00;101112.41;5076453;28;20221;-76
2022/10/27 08:29:49;;;;;;;5.37;4.87;;;;;;;13.84;100.00;101106.28;5073019;28;20736;-77
2022/10/27 08:32:15;;;;;;;6.13;5.53;;;;;;;13.94;100.00;101107.03;5075060;28;20205;-76
2022/10/27 08:34:40;;;;;;;6.07;5.47;;;;;;;14.06;100.00;101109.53;5070539;28;20186;-77
2022/10/27 08:37:06;;;;;;;5.73;5.23;;;;;;;14.15;100.00;101109.41;5075824;28;20193;-75
2022/10/27 08:39:31;;;;;;;5.67;5.17;;;;;;;14.24;100.00;101111.06;5070609;28;20304;-76
2022/10/27 08:42:10;;;;;;;6.43;5.80;;;;;;;14.35;100.00;101108.34;5075965;28;20301;-76
2022/10/27 08:44:39;;;;;;;5.90;5.40;;;;;;;14.42;100.00;101122.16;5076026;28;20952;-75
2022/10/27 08:47:11;;;;;;;5.73;5.23;;;;;;;14.52;100.00;101117.69;5082822;28;20184;-75
2022/10/27 08:49:40;;;;;;;5.67;5.27;;;;;;;14.57;100.00;101116.75;5075301;28;20650;-75
2022/10/27 08:52:26;;;;;;;6.60;6.00;;;;;;;14.69;100.00;101114.91;5076845;28;20223;-76
2022/10/27 08:54:56;;;;;;;8.93;6.30;;;;;;;14.77;100.00;101115.66;5080538;28;20215;-76
2022/10/27 08:57:27;;;;;;;7.30;6.50;;;;;;;14.76;100.00;101109.59;5073390;28;20295;-75
2022/10/27 08:59:58;;;;;;;12.20;7.10;;;;;;;14.72;100.00;101101.84;5074871;28;20215;-76
2022/10/27 09:02:48;;;;;;;8.63;7.23;;;;;;;14.64;100.00;101107.97;5073754;28;20210;-75
2022/10/27 09:05:36;;;;;;;7.13;6.53;;;;;;;14.65;100.00;101116.66;5069496;28;20247;-76
2022/10/27 09:08:18;;;;;;;7.10;6.50;;;;;;;14.65;100.00;101116.66;5076480;28;20610;-75
2022/10/27 09:10:55;;;;;;;7.23;6.53;;;;;;;14.66;100.00;101107.09;5078963;28;20189;-75
2022/10/27 09:13:35;;;;;;;7.33;6.70;;;;;;;14.72;100.00;101118.31;5072668;28;20210;-74
2022/10/27 09:16:05;;;;;;;7.00;6.30;;;;;;;14.81;100.00;101121.72;5071238;28;20193;-75
2022/10/27 09:18:54;;;;;;;7.10;6.50;;;;;;;14.98;100.00;101124.06;5070424;28;20224;-74
2022/10/27 09:21:21;;;;;;;7.77;7.07;;;;;;;15.04;100.00;101122.25;5088310;28;20193;-76
2022/10/27 09:23:52;;;;;;;7.10;6.50;;;;;;;15.19;100.00;101117.69;5098442;28;20202;-75
2022/10/27 09:26:22;;;;;;;8.10;6.47;;;;;;;15.36;100.00;101126.13;5087394;28;20225;-74
2022/10/27 09:28:51;;;;;;;8.87;7.20;;;;;;;15.42;100.00;101117.34;5079059;28;20186;-76
2022/10/27 09:31:38;;;;;;;6.87;6.37;;;;;;;15.46;100.00;101120.75;5076959;28;20189;-75
2022/10/27 09:34:22;;;;;;;6.70;6.10;;;;;;;15.55;100.00;101120.63;5074648;28;20185;-74
2022/10/27 09:36:48;;;;;;;6.63;6.03;;;;;;;15.69;100.00;101113.44;5080220;28;20990;-74
2022/10/27 09:39:13;;;;;;;7.57;6.47;;;;;;;15.83;100.00;101115.78;5084126;28;20205;-76
2022/10/27 09:41:38;;;;;;;6.90;6.40;;;;;;;15.97;100.00;101119.91;5084098;28;20668;-75
2022/10/27 09:44:18;;;;;;;6.93;6.33;;;;;;;16.17;100.00;101121.31;5078854;28;20186;-75
2022/10/27 09:46:45;;;;;;;7.47;6.87;;;;;;;16.30;100.00;101112.34;5081296;28;20206;-75
2022/10/27 09:49:11;;;;;;;6.53;6.03;;;;;;;16.39;100.00;101106.97;5084356;28;20551;-75
2022/10/27 09:51:44;;;;;;;6.13;5.63;;;;;;;16.55;100.00;101114.47;5076236;28;20199;-76
2022/10/27 09:54:27;;;;;;;8.40;7.50;;;;;;;16.73;100.00;101119.28;5082283;28;20207;-75
2022/10/27 09:56:53;;;;;;;8.50;7.73;;;;;;;16.70;100.00;101102.81;5074836;28;20213;-76
2022/10/27 09:59:22;;;;;;;8.47;7.67;;;;;;;16.79;100.00;101104.38;5076984;28;20799;-74
2022/10/27 10:01:56;;;;;;;7.63;6.93;;;;;;;16.75;100.00;101095.75;5076544;28;20187;-75
2022/10/27 10:04:24;;;;;;;7.20;6.60;;;;;;;16.77;100.00;101093.97;5073351;28;20607;-75
2022/10/27 10:06:58;;;;;;;7.53;6.83;;;;;;;16.92;100.00;101095.38;5081677;28;20280;-75
2022/10/27 10:09:28;;;;;;;7.83;7.03;;;;;;;17.01;100.00;101094.34;5080149;28;20247;-76
2022/10/27 10:12:19;;;;;;;7.67;7.00;;;;;;;17.02;100.00;101096.06;5081099;28;20206;-75
2022/10/27 10:14:45;;;;;;;9.77;8.87;;;;;;;17.09;100.00;101086.31;5079950;28;20190;-76
2022/10/27 10:17:21;;;;;;;10.10;9.20;;;;;;;17.28;100.00;101092.84;5076057;28;20552;-74
2022/10/27 10:19:47;;;;;;;9.83;8.87;;;;;;;17.32;100.00;101089.22;5044333;28;20238;-75
2022/10/27 10:22:33;;;;;;;9.90;8.90;;;;;;;17.32;100.00;101088.38;5039786;28;20219;-75
2022/10/27 10:25:13;;;;;;;8.93;8.03;;;;;;;17.26;100.00;101099.00;5039870;28;20209;-75
2022/10/27 10:27:39;;;;;;;9.70;8.90;;;;;;;17.19;100.00;101095.66;5039499;28;20280;-76
2022/10/27 10:30:06;;;;;;;9.13;8.33;;;;;;;16.85;100.00;101099.88;5035922;28;20204;-76
2022/10/27 10:32:36;;;;;;;8.97;8.17;;;;;;;16.55;100.00;101091.81;5036243;28;20220;-75
2022/10/27 10:35:41;;;;;;;8.80;8.00;;;;;;;16.42;100.00;101087.75;5035497;28;20189;-77
2022/10/27 10:38:25;;;;;;;9.00;8.20;;;;;;;16.35;100.00;101096.56;5041035;28;20557;-76
2022/10/27 10:41:12;;;;;;;8.73;7.80;;;;;;;16.28;100.00;101099.31;5038897;28;20569;-75
2022/10/27 10:43:39;;;;;;;8.93;8.13;;;;;;;16.30;100.00;101097.56;5040480;28;20446;-76
2022/10/27 10:46:20;;;;;;;9.50;8.57;;;;;;;16.29;100.00;101084.50;5031588;28;20548;-75
2022/10/27 10:48:52;;;;;;;9.80;8.93;;;;;;;16.21;100.00;101084.66;5030642;28;20273;-76
2022/10/27 10:51:29;;;;;;;10.87;9.60;;;;;;;16.11;100.00;101081.34;5037864;28;20193;-75
2022/10/27 10:54:32;;;;;;;8.77;8.07;;;;;;;16.17;100.00;101069.09;5035662;28;20194;-76
2022/10/27 10:56:58;;;;;;;9.40;8.33;;;;;;;16.14;100.00;101070.84;5016900;28;20202;-76
2022/10/27 10:59:28;;;;;;;8.47;7.60;;;;;;;16.18;100.00;101057.75;5035022;28;20728;-75
2022/10/27 11:02:01;;;;;;;9.17;8.27;;;;;;;16.13;100.00;101057.84;5035722;28;20293;-76
2022/10/27 11:04:30;;;;;;;8.57;7.73;;;;;;;16.14;100.00;101060.41;5038622;28;20188;-75
2022/10/27 11:07:19;;;;;;;7.60;6.93;;;;;;;16.21;100.00;101047.25;5035138;28;20196;-75
2022/10/27 11:10:00;;;;;;;7.73;7.03;;;;;;;16.27;100.00;101052.31;5036492;28;20185;-74
2022/10/27 11:12:34;;;;;;;7.80;7.10;;;;;;;16.33;100.00;101049.59;5037616;28;20901;-75
2022/10/27 11:15:05;;;;;;;6.90;5.77;;;;;;;16.36;100.00;101041.72;5035755;28;20281;-75
2022/10/27 11:17:34;;;;;;;8.33;6.40;;;;;;;16.38;100.00;101036.44;5038421;28;20671;-76
2022/10/27 11:20:02;;;;;;;7.90;6.63;;;;;;;16.40;100.00;101029.44;5033713;28;20198;-77
2022/10/27 11:22:27;;;;;;;11.00;7.40;;;;;;;16.30;100.00;101023.53;5035292;28;20214;-75
2022/10/27 11:25:02;;;;;;;10.13;7.20;;;;;;;16.34;100.00;101025.19;5035559;28;20253;-75
2022/10/27 11:28:03;;;;;;;7.47;6.70;;;;;;;16.48;100.00;101018.81;5031667;28;20256;-75